Terminal Aerodrome Forecast
Issued by NWS

Home | Current Version | Previous Version | Text Only | Print | Product List | Glossary On
Versions: 1 2 3 4 5 6 7 8 9 10 11 12 13 14 15 16 17 18 19
697
FTUS45 KTFX 232320
TAFCTB
TAF
KCTB 232320Z 2400/2424 26015G23KT P6SM SKC
     FM240100 25015KT P6SM SKC
     FM240800 26017G25KT P6SM SKC WS020/29040KT
     FM241600 27022G30KT P6SM SKC=

USA.gov is the U.S. government's official web portal to all federal, state and local government web resources and services.